sensor_id;sensor_type;location;lat;lon;timestamp;pressure;altitude;pressure_sealevel;temperature;humidity
31357;BME280;60001;48.404;11.738;2023-04-06T00:01:14;96531.19;;;0.57;62.42
31357;BME280;60001;48.404;11.738;2023-04-06T00:02:46;96530.38;;;0.56;61.62
31357;BME280;60001;48.404;11.738;2023-04-06T00:04:17;96522.50;;;0.49;61.41
31357;BME280;60001;48.404;11.738;2023-04-06T00:05:49;96521.53;;;0.50;60.81
31357;BME280;60001;48.404;11.738;2023-04-06T00:07:21;96524.66;;;0.46;61.72
31357;BME280;60001;48.404;11.738;2023-04-06T00:08:52;96526.81;;;0.42;61.89
31357;BME280;60001;48.404;11.738;2023-04-06T00:10:24;96521.19;;;0.39;61.01
31357;BME280;60001;48.404;11.738;2023-04-06T00:11:58;96523.16;;;0.37;61.57
31357;BME280;60001;48.404;11.738;2023-04-06T00:13:30;96523.16;;;0.37;61.59
31357;BME280;60001;48.404;11.738;2023-04-06T00:15:03;96520.56;;;0.37;61.97
31357;BME280;60001;48.404;11.738;2023-04-06T00:16:36;96518.78;;;0.37;61.24
31357;BME280;60001;48.404;11.738;2023-04-06T00:18:07;96514.56;;;0.36;62.31
31357;BME280;60001;48.404;11.738;2023-04-06T00:19:39;96523.97;;;0.37;62.39
31357;BME280;60001;48.404;11.738;2023-04-06T00:21:11;96515.91;;;0.32;62.81
31357;BME280;60001;48.404;11.738;2023-04-06T00:22:43;96517.16;;;0.36;61.88
31357;BME280;60001;48.404;11.738;2023-04-06T00:24:14;96520.56;;;0.37;62.13
31357;BME280;60001;48.404;11.738;2023-04-06T00:25:46;96515.09;;;0.32;62.16
31357;BME280;60001;48.404;11.738;2023-04-06T00:27:19;96512.97;;;0.35;61.91
31357;BME280;60001;48.404;11.738;2023-04-06T00:28:50;96514.56;;;0.36;62.58
31357;BME280;60001;48.404;11.738;2023-04-06T00:30:23;96521.56;;;0.36;62.44
31357;BME280;60001;48.404;11.738;2023-04-06T00:31:55;96528.53;;;0.35;61.86
31357;BME280;60001;48.404;11.738;2023-04-06T00:33:28;96525.31;;;0.33;62.25
31357;BME280;60001;48.404;11.738;2023-04-06T00:35:02;96515.72;;;0.34;61.74
31357;BME280;60001;48.404;11.738;2023-04-06T00:36:33;96521.72;;;0.34;62.93
31357;BME280;60001;48.404;11.738;2023-04-06T00:38:04;96524.31;;;0.34;62.13
31357;BME280;60001;48.404;11.738;2023-04-06T00:39:36;96528.53;;;0.35;61.80
31357;BME280;60001;48.404;11.738;2023-04-06T00:41:07;96522.50;;;0.35;61.73
31357;BME280;60001;48.404;11.738;2023-04-06T00:42:40;96523.28;;;0.29;62.68
31357;BME280;60001;48.404;11.738;2023-04-06T00:44:12;96519.50;;;0.31;62.83
31357;BME280;60001;48.404;11.738;2023-04-06T00:45:43;96528.47;;;0.29;61.78
31357;BME280;60001;48.404;11.738;2023-04-06T00:47:15;96526.22;;;0.25;62.83
31357;BME280;60001;48.404;11.738;2023-04-06T00:48:47;96520.41;;;0.23;61.73
31357;BME280;60001;48.404;11.738;2023-04-06T00:50:18;96522.38;;;0.21;62.50
31357;BME280;60001;48.404;11.738;2023-04-06T00:51:50;96519.13;;;0.19;62.38
31357;BME280;60001;48.404;11.738;2023-04-06T00:53:21;96518.72;;;0.16;61.70
31357;BME280;60001;48.404;11.738;2023-04-06T00:54:53;96520.22;;;0.10;62.73
31357;BME280;60001;48.404;11.738;2023-04-06T00:56:25;96519.44;;;0.10;62.28
31357;BME280;60001;48.404;11.738;2023-04-06T00:57:59;96513.78;;;0.06;61.21
31357;BME280;60001;48.404;11.738;2023-04-06T00:59:31;96516.94;;;0.02;62.27
31357;BME280;60001;48.404;11.738;2023-04-06T01:01:02;96516.47;;;-0.02;61.45
31357;BME280;60001;48.404;11.738;2023-04-06T01:02:34;96507.78;;;-0.09;61.30
31357;BME280;60001;48.404;11.738;2023-04-06T01:04:06;96523.03;;;-0.06;61.87
31357;BME280;60001;48.404;11.738;2023-04-06T01:05:37;96518.63;;;-0.06;61.94
31357;BME280;60001;48.404;11.738;2023-04-06T01:07:10;96515.06;;;-0.05;63.23
31357;BME280;60001;48.404;11.738;2023-04-06T01:08:42;96515.06;;;-0.05;62.98
31357;BME280;60001;48.404;11.738;2023-04-06T01:10:22;96507.34;;;-0.13;62.57
31357;BME280;60001;48.404;11.738;2023-04-06T01:11:55;96510.84;;;-0.06;62.50
31357;BME280;60001;48.404;11.738;2023-04-06T01:13:28;96515.25;;;-0.06;63.30
31357;BME280;60001;48.404;11.738;2023-04-06T01:15:00;96506.56;;;-0.13;62.04
31357;BME280;60001;48.404;11.738;2023-04-06T01:16:33;96508.59;;;-0.09;62.40
31357;BME280;60001;48.404;11.738;2023-04-06T01:18:04;96516.19;;;-0.07;63.04
31357;BME280;60001;48.404;11.738;2023-04-06T01:19:37;96516.19;;;-0.07;63.13
31357;BME280;60001;48.404;11.738;2023-04-06T01:21:10;96511.00;;;-0.07;63.63
31357;BME280;60001;48.404;11.738;2023-04-06T01:22:47;96512.63;;;-0.06;63.40
31357;BME280;60001;48.404;11.738;2023-04-06T01:24:19;96512.81;;;-0.08;63.56
31357;BME280;60001;48.404;11.738;2023-04-06T01:25:50;96513.16;;;-0.11;62.62
31357;BME280;60001;48.404;11.738;2023-04-06T01:27:22;96516.28;;;-0.15;62.75
31357;BME280;60001;48.404;11.738;2023-04-06T01:28:56;96508.69;;;-0.17;63.79
31357;BME280;60001;48.404;11.738;2023-04-06T01:30:27;96507.88;;;-0.17;63.28
31357;BME280;60001;48.404;11.738;2023-04-06T01:31:58;96512.09;;;-0.16;63.88
31357;BME280;60001;48.404;11.738;2023-04-06T01:33:30;96506.28;;;-0.18;63.46
31357;BME280;60001;48.404;11.738;2023-04-06T01:35:03;96506.09;;;-0.17;63.18
31357;BME280;60001;48.404;11.738;2023-04-06T01:36:33;96507.09;;;-0.18;63.54
31357;BME280;60001;48.404;11.738;2023-04-06T01:38:07;96499.63;;;-0.21;63.08
31357;BME280;60001;48.404;11.738;2023-04-06T01:39:38;96505.00;;;-0.22;62.79
31357;BME280;60001;48.404;11.738;2023-04-06T01:41:10;96507.97;;;-0.25;63.25
31357;BME280;60001;48.404;11.738;2023-04-06T01:42:41;96504.59;;;-0.26;63.15
31357;BME280;60001;48.404;11.738;2023-04-06T01:44:12;96503.13;;;-0.29;63.42
31357;BME280;60001;48.404;11.738;2023-04-06T01:45:45;96500.53;;;-0.29;64.09
31357;BME280;60001;48.404;11.738;2023-04-06T01:47:16;96494.53;;;-0.29;63.22
31357;BME280;60001;48.404;11.738;2023-04-06T01:48:48;96492.66;;;-0.35;63.29
31357;BME280;60001;48.404;11.738;2023-04-06T01:50:19;96494.09;;;-0.33;64.55
31357;BME280;60001;48.404;11.738;2023-04-06T01:51:51;96494.28;;;-0.34;64.62
31357;BME280;60001;48.404;11.738;2023-04-06T01:53:26;96495.25;;;-0.35;63.89
31357;BME280;60001;48.404;11.738;2023-04-06T01:54:57;96495.09;;;-0.34;65.00
31357;BME280;60001;48.404;11.738;2023-04-06T01:56:29;96497.69;;;-0.34;64.84
31357;BME280;60001;48.404;11.738;2023-04-06T01:58:00;96492.31;;;-0.32;65.56
31357;BME280;60001;48.404;11.738;2023-04-06T01:59:32;96494.44;;;-0.36;64.32
31357;BME280;60001;48.404;11.738;2023-04-06T02:01:03;96490.91;;;-0.35;64.35
31357;BME280;60001;48.404;11.738;2023-04-06T02:02:35;96492.84;;;-0.37;63.98
31357;BME280;60001;48.404;11.738;2023-04-06T02:04:06;96477.28;;;-0.51;64.35
31357;BME280;60001;48.404;11.738;2023-04-06T02:05:38;96487.22;;;-0.40;65.18
31357;BME280;60001;48.404;11.738;2023-04-06T02:07:09;96486.41;;;-0.41;64.98
31357;BME280;60001;48.404;11.738;2023-04-06T02:08:42;96489.16;;;-0.42;64.69
31357;BME280;60001;48.404;11.738;2023-04-06T02:10:14;96491.59;;;-0.41;65.01
31357;BME280;60001;48.404;11.738;2023-04-06T02:11:45;96486.56;;;-0.42;65.48
31357;BME280;60001;48.404;11.738;2023-04-06T02:13:17;96487.75;;;-0.45;65.06
31357;BME280;60001;48.404;11.738;2023-04-06T02:14:48;96478.25;;;-0.52;64.79
31357;BME280;60001;48.404;11.738;2023-04-06T02:16:20;96488.25;;;-0.49;65.39
31357;BME280;60001;48.404;11.738;2023-04-06T02:17:53;96478.78;;;-0.57;65.22
31357;BME280;60001;48.404;11.738;2023-04-06T02:19:23;96497.69;;;-0.48;65.91
31357;BME280;60001;48.404;11.738;2023-04-06T02:20:55;96490.72;;;-0.48;65.50
31357;BME280;60001;48.404;11.738;2023-04-06T02:22:27;96492.31;;;-0.47;65.73
31357;BME280;60001;48.404;11.738;2023-04-06T02:23:59;96493.13;;;-0.46;66.08
31357;BME280;60001;48.404;11.738;2023-04-06T02:25:31;96498.50;;;-0.48;64.86
31357;BME280;60001;48.404;11.738;2023-04-06T02:27:02;96487.84;;;-0.53;64.75
31357;BME280;60001;48.404;11.738;2023-04-06T02:28:35;96496.22;;;-0.51;65.83
31357;BME280;60001;48.404;11.738;2023-04-06T02:30:07;96485.84;;;-0.51;66.20
31357;BME280;60001;48.404;11.738;2023-04-06T02:31:39;96483.06;;;-0.49;66.11
31357;BME280;60001;48.404;11.738;2023-04-06T02:33:11;96491.66;;;-0.49;65.10
31357;BME280;60001;48.404;11.738;2023-04-06T02:34:42;96485.84;;;-0.51;65.51
31357;BME280;60001;48.404;11.738;2023-04-06T02:36:14;96485.06;;;-0.51;65.43
31357;BME280;60001;48.404;11.738;2023-04-06T02:37:46;96486.84;;;-0.52;65.52
31357;BME280;60001;48.404;11.738;2023-04-06T02:39:19;96491.75;;;-0.57;66.24
31357;BME280;60001;48.404;11.738;2023-04-06T02:40:50;96491.41;;;-0.54;66.54
31357;BME280;60001;48.404;11.738;2023-04-06T02:42:22;96484.63;;;-0.55;66.09
31357;BME280;60001;48.404;11.738;2023-04-06T02:43:53;96485.41;;;-0.54;66.86
31357;BME280;60001;48.404;11.738;2023-04-06T02:45:25;96486.41;;;-0.56;66.35
31357;BME280;60001;48.404;11.738;2023-04-06T02:46:56;96485.56;;;-0.56;65.87
31357;BME280;60001;48.404;11.738;2023-04-06T02:48:28;96481.38;;;-0.57;66.59
31357;BME280;60001;48.404;11.738;2023-04-06T02:50:00;96480.75;;;-0.59;66.95
31357;BME280;60001;48.404;11.738;2023-04-06T02:51:32;96486.56;;;-0.57;66.12
31357;BME280;60001;48.404;11.738;2023-04-06T02:53:03;96473.34;;;-0.62;66.32
31357;BME280;60001;48.404;11.738;2023-04-06T02:54:36;96474.56;;;-0.58;66.17
31357;BME280;60001;48.404;11.738;2023-04-06T02:56:08;96486.56;;;-0.57;65.86
31357;BME280;60001;48.404;11.738;2023-04-06T02:57:43;96487.22;;;-0.55;65.62
31357;BME280;60001;48.404;11.738;2023-04-06T02:59:14;96487.22;;;-0.55;66.58
31357;BME280;60001;48.404;11.738;2023-04-06T03:00:45;96486.22;;;-0.54;65.44
31357;BME280;60001;48.404;11.738;2023-04-06T03:02:17;96487.22;;;-0.55;65.93
31357;BME280;60001;48.404;11.738;2023-04-06T03:03:49;96478.34;;;-0.61;64.93
31357;BME280;60001;48.404;11.738;2023-04-06T03:05:20;96482.44;;;-0.66;64.84
31357;BME280;60001;48.404;11.738;2023-04-06T03:06:54;96483.94;;;-0.72;65.87
31357;BME280;60001;48.404;11.738;2023-04-06T03:08:25;96487.09;;;-0.76;65.73
31357;BME280;60001;48.404;11.738;2023-04-06T03:09:58;96490.81;;;-0.79;65.52
31357;BME280;60001;48.404;11.738;2023-04-06T03:11:29;96479.09;;;-0.90;65.53
31357;BME280;60001;48.404;11.738;2023-04-06T03:13:01;96484.09;;;-0.88;66.03
31357;BME280;60001;48.404;11.738;2023-04-06T03:14:33;96485.72;;;-0.87;65.94
31357;BME280;60001;48.404;11.738;2023-04-06T03:16:05;96483.13;;;-0.87;65.81
31357;BME280;60001;48.404;11.738;2023-04-06T03:17:37;96481.69;;;-0.90;66.82
31357;BME280;60001;48.404;11.738;2023-04-06T03:19:08;96477.66;;;-0.92;66.10
31357;BME280;60001;48.404;11.738;2023-04-06T03:20:40;96482.50;;;-0.89;66.63
31357;BME280;60001;48.404;11.738;2023-04-06T03:22:10;96483.91;;;-0.87;66.50
31357;BME280;60001;48.404;11.738;2023-04-06T03:23:42;96487.31;;;-0.86;67.57
31357;BME280;60001;48.404;11.738;2023-04-06T03:25:16;96482.13;;;-0.86;67.38
31357;BME280;60001;48.404;11.738;2023-04-06T03:26:48;96478.56;;;-0.85;66.42
31357;BME280;60001;48.404;11.738;2023-04-06T03:28:20;96488.13;;;-0.86;66.36
31357;BME280;60001;48.404;11.738;2023-04-06T03:29:52;96485.88;;;-0.89;67.50
31357;BME280;60001;48.404;11.738;2023-04-06T03:31:23;96483.31;;;-0.89;66.81
31357;BME280;60001;48.404;11.738;2023-04-06T03:32:54;96483.63;;;-0.92;66.84
31357;BME280;60001;48.404;11.738;2023-04-06T03:34:26;96476.41;;;-0.96;66.38
31357;BME280;60001;48.404;11.738;2023-04-06T03:35:58;96478.34;;;-0.98;66.73
31357;BME280;60001;48.404;11.738;2023-04-06T03:37:29;96481.13;;;-1.00;67.00
31357;BME280;60001;48.404;11.738;2023-04-06T03:39:01;96490.69;;;-1.00;67.36
31357;BME280;60001;48.404;11.738;2023-04-06T03:40:33;96471.81;;;-1.09;67.38
31357;BME280;60001;48.404;11.738;2023-04-06T03:42:05;96491.66;;;-1.01;66.28
31357;BME280;60001;48.404;11.738;2023-04-06T03:43:37;96486.00;;;-1.05;66.42
31357;BME280;60001;48.404;11.738;2023-04-06T03:45:08;96491.38;;;-1.06;67.39
31357;BME280;60001;48.404;11.738;2023-04-06T03:46:40;96493.34;;;-1.08;67.81
31357;BME280;60001;48.404;11.738;2023-04-06T03:48:11;96493.84;;;-1.13;67.71
31357;BME280;60001;48.404;11.738;2023-04-06T03:49:43;96502.59;;;-1.14;67.18
31357;BME280;60001;48.404;11.738;2023-04-06T03:51:14;96496.00;;;-1.17;67.60
31357;BME280;60001;48.404;11.738;2023-04-06T03:52:46;96499.91;;;-1.21;68.33
31357;BME280;60001;48.404;11.738;2023-04-06T03:54:17;96503.28;;;-1.20;67.39
31357;BME280;60001;48.404;11.738;2023-04-06T03:55:50;96498.66;;;-1.25;68.15
31357;BME280;60001;48.404;11.738;2023-04-06T03:57:22;96502.19;;;-1.26;67.59
31357;BME280;60001;48.404;11.738;2023-04-06T03:58:54;96507.03;;;-1.23;67.93
31357;BME280;60001;48.404;11.738;2023-04-06T04:00:26;96512.22;;;-1.23;68.42
31357;BME280;60001;48.404;11.738;2023-04-06T04:01:58;96503.66;;;-1.23;68.09
31357;BME280;60001;48.404;11.738;2023-04-06T04:03:30;96499.16;;;-1.29;67.94
31357;BME280;60001;48.404;11.738;2023-04-06T04:05:03;96507.03;;;-1.23;68.65
31357;BME280;60001;48.404;11.738;2023-04-06T04:06:34;96511.25;;;-1.22;68.51
31357;BME280;60001;48.404;11.738;2023-04-06T04:08:08;96508.84;;;-1.23;68.88
31357;BME280;60001;48.404;11.738;2023-04-06T04:09:40;96505.44;;;-1.24;68.45
31357;BME280;60001;48.404;11.738;2023-04-06T04:11:13;96507.22;;;-1.24;69.86
31357;BME280;60001;48.404;11.738;2023-04-06T04:12:46;96509.00;;;-1.25;69.15
31357;BME280;60001;48.404;11.738;2023-04-06T04:14:18;96507.22;;;-1.24;70.25
31357;BME280;60001;48.404;11.738;2023-04-06T04:15:50;96500.75;;;-1.28;69.78
31357;BME280;60001;48.404;11.738;2023-04-06T04:17:21;96506.88;;;-1.21;70.05
31357;BME280;60001;48.404;11.738;2023-04-06T04:18:53;96510.72;;;-1.17;69.43
31357;BME280;60001;48.404;11.738;2023-04-06T04:20:25;96509.75;;;-1.16;69.75
31357;BME280;60001;48.404;11.738;2023-04-06T04:21:58;96515.91;;;-1.17;69.72
31357;BME280;60001;48.404;11.738;2023-04-06T04:23:29;96511.53;;;-1.17;70.61
31357;BME280;60001;48.404;11.738;2023-04-06T04:25:01;96503.41;;;-1.14;71.38
31357;BME280;60001;48.404;11.738;2023-04-06T04:26:33;96518.44;;;-1.09;70.63
31357;BME280;60001;48.404;11.738;2023-04-06T04:28:05;96521.66;;;-1.07;70.70
31357;BME280;60001;48.404;11.738;2023-04-06T04:29:36;96518.75;;;-1.04;70.33
31357;BME280;60001;48.404;11.738;2023-04-06T04:31:08;96519.38;;;-1.02;71.46
31357;BME280;60001;48.404;11.738;2023-04-06T04:32:40;96516.41;;;-0.99;70.62
31357;BME280;60001;48.404;11.738;2023-04-06T04:34:12;96516.41;;;-0.99;70.86
31357;BME280;60001;48.404;11.738;2023-04-06T04:35:42;96514.00;;;-1.00;71.66
31357;BME280;60001;48.404;11.738;2023-04-06T04:37:14;96513.38;;;-1.02;71.85
31357;BME280;60001;48.404;11.738;2023-04-06T04:38:45;96517.75;;;-1.03;71.09
31357;BME280;60001;48.404;11.738;2023-04-06T04:40:17;96522.13;;;-1.03;71.70
31357;BME280;60001;48.404;11.738;2023-04-06T04:41:51;96532.31;;;-1.02;71.94
31357;BME280;60001;48.404;11.738;2023-04-06T04:43:24;96518.75;;;-1.04;70.91
31357;BME280;60001;48.404;11.738;2023-04-06T04:44:55;96528.13;;;-1.03;70.52
31357;BME280;60001;48.404;11.738;2023-04-06T04:46:27;96530.06;;;-1.05;71.84
31357;BME280;60001;48.404;11.738;2023-04-06T04:47:59;96529.09;;;-1.04;71.22
31357;BME280;60001;48.404;11.738;2023-04-06T04:49:31;96531.69;;;-1.04;72.20
31357;BME280;60001;48.404;11.738;2023-04-06T04:51:04;96532.66;;;-1.05;71.80
31357;BME280;60001;48.404;11.738;2023-04-06T04:52:37;96527.66;;;-1.06;71.62
31357;BME280;60001;48.404;11.738;2023-04-06T04:54:09;96530.53;;;-1.01;71.90
31357;BME280;60001;48.404;11.738;2023-04-06T04:55:41;96526.97;;;-1.00;71.71
31357;BME280;60001;48.404;11.738;2023-04-06T04:57:14;96531.16;;;-0.99;71.86
31357;BME280;60001;48.404;11.738;2023-04-06T04:58:45;96530.97;;;-0.98;71.62
31357;BME280;60001;48.404;11.738;2023-04-06T05:00:18;96536.00;;;-0.96;71.50
31357;BME280;60001;48.404;11.738;2023-04-06T05:01:51;96529.03;;;-0.96;71.57
31357;BME280;60001;48.404;11.738;2023-04-06T05:03:25;96515.78;;;-1.01;72.33
31357;BME280;60001;48.404;11.738;2023-04-06T05:04:57;96524.66;;;-0.95;71.53
31357;BME280;60001;48.404;11.738;2023-04-06T05:06:29;96527.06;;;-0.94;72.03
31357;BME280;60001;48.404;11.738;2023-04-06T05:08:01;96525.09;;;-0.92;72.27
31357;BME280;60001;48.404;11.738;2023-04-06T05:09:33;96528.34;;;-0.90;72.14
31357;BME280;60001;48.404;11.738;2023-04-06T05:11:04;96521.88;;;-0.94;71.55
31357;BME280;60001;48.404;11.738;2023-04-06T05:12:37;96523.16;;;-0.90;71.72
31357;BME280;60001;48.404;11.738;2023-04-06T05:14:09;96525.22;;;-0.85;71.73
31357;BME280;60001;48.404;11.738;2023-04-06T05:15:41;96522.28;;;-0.82;73.09
31357;BME280;60001;48.404;11.738;2023-04-06T05:17:13;96526.50;;;-0.81;72.86
31357;BME280;60001;48.404;11.738;2023-04-06T05:18:44;96521.50;;;-0.82;72.76
31357;BME280;60001;48.404;11.738;2023-04-06T05:20:16;96531.97;;;-0.76;73.26
31357;BME280;60001;48.404;11.738;2023-04-06T05:21:48;96530.81;;;-0.73;72.57
31357;BME280;60001;48.404;11.738;2023-04-06T05:23:20;96530.44;;;-0.70;72.84
31357;BME280;60001;48.404;11.738;2023-04-06T05:24:52;96537.53;;;-0.64;72.29
31357;BME280;60001;48.404;11.738;2023-04-06T05:26:24;96538.78;;;-0.60;71.92
31357;BME280;60001;48.404;11.738;2023-04-06T05:27:57;96536.63;;;-0.57;72.41
31357;BME280;60001;48.404;11.738;2023-04-06T05:29:29;96527.91;;;-0.56;71.80
31357;BME280;60001;48.404;11.738;2023-04-06T05:31:01;96536.75;;;-0.50;71.93
31357;BME280;60001;48.404;11.738;2023-04-06T05:32:34;96539.81;;;-0.46;72.54
31357;BME280;60001;48.404;11.738;2023-04-06T05:34:06;96531.66;;;-0.43;72.92
31357;BME280;60001;48.404;11.738;2023-04-06T05:35:39;96529.97;;;-0.36;72.71
31357;BME280;60001;48.404;11.738;2023-04-06T05:37:11;96539.81;;;-0.32;72.72
31357;BME280;60001;48.404;11.738;2023-04-06T05:38:43;96531.53;;;-0.27;71.98
31357;BME280;60001;48.404;11.738;2023-04-06T05:40:15;96537.59;;;-0.20;72.73
31357;BME280;60001;48.404;11.738;2023-04-06T05:41:48;96532.50;;;-0.13;71.66
31357;BME280;60001;48.404;11.738;2023-04-06T05:43:21;96536.97;;;-0.07;72.17
31357;BME280;60001;48.404;11.738;2023-04-06T05:44:52;96526.56;;;-0.07;71.21
31357;BME280;60001;48.404;11.738;2023-04-06T05:46:24;96534.91;;;0.03;70.95
31357;BME280;60001;48.404;11.738;2023-04-06T05:47:55;96538.13;;;0.05;71.27
31357;BME280;60001;48.404;11.738;2023-04-06T05:49:27;96542.97;;;0.08;71.44
31357;BME280;60001;48.404;11.738;2023-04-06T05:50:57;96536.44;;;0.12;71.13
31357;BME280;60001;48.404;11.738;2023-04-06T05:52:30;96536.09;;;0.15;70.51
31357;BME280;60001;48.404;11.738;2023-04-06T05:54:01;96537.50;;;0.18;70.84
31357;BME280;60001;48.404;11.738;2023-04-06T05:55:33;96537.31;;;0.19;69.91
31357;BME280;60001;48.404;11.738;2023-04-06T05:57:04;96538.38;;;0.25;70.06
31357;BME280;60001;48.404;11.738;2023-04-06T05:58:38;96541.06;;;0.32;71.09
31357;BME280;60001;48.404;11.738;2023-04-06T06:00:11;96544.75;;;0.37;70.14
31357;BME280;60001;48.404;11.738;2023-04-06T06:01:43;96532.56;;;0.38;70.39
31357;BME280;60001;48.404;11.738;2023-04-06T06:03:14;96544.91;;;0.50;69.47
31357;BME280;60001;48.404;11.738;2023-04-06T06:04:46;96549.53;;;0.55;69.75
31357;BME280;60001;48.404;11.738;2023-04-06T06:06:18;96541.81;;;0.62;69.12
31357;BME280;60001;48.404;11.738;2023-04-06T06:07:51;96531.88;;;0.65;69.17
31357;BME280;60001;48.404;11.738;2023-04-06T06:09:23;96546.00;;;0.77;68.95
31357;BME280;60001;48.404;11.738;2023-04-06T06:10:54;96549.09;;;0.88;69.10
31357;BME280;60001;48.404;11.738;2023-04-06T06:12:26;96549.44;;;0.99;68.39
31357;BME280;60001;48.404;11.738;2023-04-06T06:13:59;96552.50;;;1.09;68.53
31357;BME280;60001;48.404;11.738;2023-04-06T06:15:31;96553.38;;;1.17;67.83
31357;BME280;60001;48.404;11.738;2023-04-06T06:17:03;96553.44;;;1.23;67.32
31357;BME280;60001;48.404;11.738;2023-04-06T06:18:35;96539.28;;;1.26;67.31
31357;BME280;60001;48.404;11.738;2023-04-06T06:20:08;96546.63;;;1.44;66.17
31357;BME280;60001;48.404;11.738;2023-04-06T06:21:39;96551.94;;;1.57;65.91
31357;BME280;60001;48.404;11.738;2023-04-06T06:23:11;96553.88;;;1.76;65.80
31357;BME280;60001;48.404;11.738;2023-04-06T06:24:43;96548.84;;;2.03;65.62
31357;BME280;60001;48.404;11.738;2023-04-06T06:26:15;96546.19;;;2.31;65.59
31357;BME280;60001;48.404;11.738;2023-04-06T06:27:47;96555.13;;;2.63;65.40
31357;BME280;60001;48.404;11.738;2023-04-06T06:29:20;96548.81;;;2.98;64.34
31357;BME280;60001;48.404;11.738;2023-04-06T06:30:52;96547.25;;;3.24;62.46
31357;BME280;60001;48.404;11.738;2023-04-06T06:32:24;96553.91;;;3.46;60.97
31357;BME280;60001;48.404;11.738;2023-04-06T06:33:56;96549.28;;;3.68;60.29
31357;BME280;60001;48.404;11.738;2023-04-06T06:35:28;96551.28;;;3.93;59.90
31357;BME280;60001;48.404;11.738;2023-04-06T06:37:03;96548.00;;;4.17;58.45
31357;BME280;60001;48.404;11.738;2023-04-06T06:38:35;96548.91;;;4.49;58.07
31357;BME280;60001;48.404;11.738;2023-04-06T06:40:09;96552.75;;;4.91;58.43
31357;BME280;60001;48.404;11.738;2023-04-06T06:41:43;96553.88;;;5.40;57.24
31357;BME280;60001;48.404;11.738;2023-04-06T06:43:15;96548.84;;;5.89;57.08
31357;BME280;60001;48.404;11.738;2023-04-06T06:44:48;96546.50;;;6.24;54.13
31357;BME280;60001;48.404;11.738;2023-04-06T06:46:20;96546.81;;;6.52;52.80
31357;BME280;60001;48.404;11.738;2023-04-06T06:47:52;96551.97;;;6.77;49.86
31357;BME280;60001;48.404;11.738;2023-04-06T06:49:24;96547.03;;;6.99;50.48
31357;BME280;60001;48.404;11.738;2023-04-06T06:50:56;96554.66;;;7.19;50.51
31357;BME280;60001;48.404;11.738;2023-04-06T06:52:28;96547.28;;;7.39;48.22
31357;BME280;60001;48.404;11.738;2023-04-06T06:54:00;96549.34;;;7.37;47.01
31357;BME280;60001;48.404;11.738;2023-04-06T06:55:32;96543.97;;;7.32;47.59
31357;BME280;60001;48.404;11.738;2023-04-06T06:57:04;96545.03;;;7.13;46.59
31357;BME280;60001;48.404;11.738;2023-04-06T06:58:36;96554.47;;;7.32;46.85
31357;BME280;60001;48.404;11.738;2023-04-06T07:00:10;96553.09;;;7.41;45.70
31357;BME280;60001;48.404;11.738;2023-04-06T07:01:43;96550.75;;;7.52;46.77
31357;BME280;60001;48.404;11.738;2023-04-06T07:03:15;96554.88;;;7.59;47.18
31357;BME280;60001;48.404;11.738;2023-04-06T07:04:47;96551.34;;;7.89;46.59
31357;BME280;60001;48.404;11.738;2023-04-06T07:06:20;96557.88;;;8.10;45.31
31357;BME280;60001;48.404;11.738;2023-04-06T07:07:52;96558.47;;;8.35;44.32
31357;BME280;60001;48.404;11.738;2023-04-06T07:09:24;96567.34;;;8.46;44.21
31357;BME280;60001;48.404;11.738;2023-04-06T07:10:57;96566.19;;;8.65;43.24
31357;BME280;60001;48.404;11.738;2023-04-06T07:12:28;96562.59;;;8.83;43.24
31357;BME280;60001;48.404;11.738;2023-04-06T07:14:00;96570.56;;;9.00;42.66
31357;BME280;60001;48.404;11.738;2023-04-06T07:15:34;96562.13;;;8.86;42.17
31357;BME280;60001;48.404;11.738;2023-04-06T07:17:06;96560.94;;;8.94;42.08
31357;BME280;60001;48.404;11.738;2023-04-06T07:18:37;96562.88;;;8.98;42.74
31357;BME280;60001;48.404;11.738;2023-04-06T07:20:10;96566.31;;;8.99;41.63
31357;BME280;60001;48.404;11.738;2023-04-06T07:21:42;96563.34;;;8.95;41.69
31357;BME280;60001;48.404;11.738;2023-04-06T07:23:14;96563.59;;;8.94;42.06
31357;BME280;60001;48.404;11.738;2023-04-06T07:24:46;96556.72;;;8.93;41.37
31357;BME280;60001;48.404;11.738;2023-04-06T07:26:18;96562.16;;;9.03;41.73
31357;BME280;60001;48.404;11.738;2023-04-06T07:27:50;96565.28;;;9.00;41.16
31357;BME280;60001;48.404;11.738;2023-04-06T07:29:22;96564.94;;;8.96;41.75
31357;BME280;60001;48.404;11.738;2023-04-06T07:30:58;96561.16;;;9.04;41.63
31357;BME280;60001;48.404;11.738;2023-04-06T07:32:30;96565.56;;;9.15;41.29
31357;BME280;60001;48.404;11.738;2023-04-06T07:34:02;96564.66;;;9.10;41.53
31357;BME280;60001;48.404;11.738;2023-04-06T07:35:34;96567.75;;;9.18;41.77
31357;BME280;60001;48.404;11.738;2023-04-06T07:37:07;96561.16;;;9.32;42.20
31357;BME280;60001;48.404;11.738;2023-04-06T07:38:38;96568.03;;;9.50;41.67
31357;BME280;60001;48.404;11.738;2023-04-06T07:40:11;96566.63;;;9.76;41.05
31357;BME280;60001;48.404;11.738;2023-04-06T07:41:42;96559.28;;;9.95;41.09
31357;BME280;60001;48.404;11.738;2023-04-06T07:43:14;96565.41;;;9.84;38.98
31357;BME280;60001;48.404;11.738;2023-04-06T07:44:48;96558.16;;;9.91;40.33
31357;BME280;60001;48.404;11.738;2023-04-06T07:46:21;96566.31;;;9.89;40.27
31357;BME280;60001;48.404;11.738;2023-04-06T07:47:53;96559.41;;;9.72;39.21
31357;BME280;60001;48.404;11.738;2023-04-06T07:51:06;96562.44;;;9.64;39.93
31357;BME280;60001;48.404;11.738;2023-04-06T07:52:39;96556.97;;;9.82;40.51
31357;BME280;60001;48.404;11.738;2023-04-06T07:54:11;96563.34;;;10.03;41.19
31357;BME280;60001;48.404;11.738;2023-04-06T07:55:43;96555.41;;;10.20;39.52
31357;BME280;60001;48.404;11.738;2023-04-06T07:57:15;96556.56;;;10.24;40.09
31357;BME280;60001;48.404;11.738;2023-04-06T07:58:47;96553.09;;;10.06;39.61
31357;BME280;60001;48.404;11.738;2023-04-06T08:00:20;96556.38;;;9.97;40.16
31357;BME280;60001;48.404;11.738;2023-04-06T08:01:53;96553.41;;;9.59;39.56
31357;BME280;60001;48.404;11.738;2023-04-06T08:03:25;96558.22;;;9.63;41.92
31357;BME280;60001;48.404;11.738;2023-04-06T08:04:57;96553.81;;;9.85;42.70
31357;BME280;60001;48.404;11.738;2023-04-06T08:06:29;96549.75;;;10.11;41.18